Terminal Aerodrome Forecast
Issued by NWS

Home | Current Version | Previous Version | Text Only | Print | Product List | Glossary On
Versions: 1 2 3 4 5 6 7 8 9 10 11 12 13 14 15 16 17 18
000
FTUS46 KPDT 220500
TAFPSC
TAF
KPSC 220528Z 2206/2306 VRB04KT P6SM BKN120
     FM221100 VRB04KT P6SM OVC100
     FM221600 19011KT P6SM VCSH OVC080
     FM230000 18010KT P6SM -SHRA OVC070=

USA.gov is the U.S. government's official web portal to all federal, state and local government web resources and services.